Time,TemperatureF,DewpointF,PressureIn,WindDirection,WindDirectionDegrees,WindSpeedMPH,WindSpeedGustMPH,Humidity,HourlyPrecipIn,Conditions,Clouds,dailyrainin,SoftwareType,DateUTC
2013-04-08 00:05:00,67.4,61.0,29.77,SE,143,9.0,17.0,80,0.00,,,0.00,weatherlink.com 1.10,2013-04-08 05:05:00,
2013-04-08 00:20:00,67.8,61.0,29.76,South,173,9.0,21.0,80,0.00,,,0.00,weatherlink.com 1.10,2013-04-08 05:20:00,
2013-04-08 00:35:00,68.0,62.0,29.76,SSW,197,9.0,16.0,80,0.00,,,0.00,weatherlink.com 1.10,2013-04-08 05:35:00,
2013-04-08 00:50:00,68.0,62.0,29.77,SSE,164,8.0,19.0,80,0.00,,,0.00,weatherlink.com 1.10,2013-04-08 05:50:00,
2013-04-08 01:06:00,67.9,62.0,29.76,SSE,156,11.0,16.0,81,0.00,,,0.00,weatherlink.com 1.10,2013-04-08 06:06:00,
2013-04-08 01:20:00,67.7,62.0,29.76,SSE,160,6.0,17.0,81,0.00,,,0.00,weatherlink.com 1.10,2013-04-08 06:20:00,
2013-04-08 01:35:00,67.6,62.0,29.76,SSW,197,9.0,22.0,81,0.00,,,0.00,weatherlink.com 1.10,2013-04-08 06:35:00,
2013-04-08 01:51:00,67.4,62.0,29.75,SSE,164,5.0,21.0,82,0.00,,,0.00,weatherlink.com 1.10,2013-04-08 06:51:00,
2013-04-08 02:05:00,67.2,61.0,29.75,South,172,8.0,16.0,81,0.00,,,0.00,weatherlink.com 1.10,2013-04-08 07:05:00,
2013-04-08 02:20:00,67.2,61.0,29.75,SE,146,4.0,17.0,81,0.00,,,0.00,weatherlink.com 1.10,2013-04-08 07:20:00,
2013-04-08 02:35:00,67.0,61.0,29.75,SSE,152,8.0,15.0,82,0.00,,,0.00,weatherlink.com 1.10,2013-04-08 07:35:00,
2013-04-08 02:51:00,66.8,62.0,29.74,South,170,11.0,15.0,83,0.00,,,0.00,weatherlink.com 1.10,2013-04-08 07:51:00,
2013-04-08 03:06:00,66.7,61.0,29.74,South,170,8.0,16.0,83,0.00,,,0.00,weatherlink.com 1.10,2013-04-08 08:06:00,
2013-04-08 03:21:00,66.6,61.0,29.73,SE,146,11.0,19.0,83,0.00,,,0.00,weatherlink.com 1.10,2013-04-08 08:21:00,
2013-04-08 03:36:00,66.5,61.0,29.73,South,172,4.0,18.0,83,0.00,,,0.00,weatherlink.com 1.10,2013-04-08 08:36:00,
2013-04-08 03:51:00,66.5,61.0,29.73,South,183,2.0,15.0,83,0.00,,,0.00,weatherlink.com 1.10,2013-04-08 08:51:00,
2013-04-08 04:06:00,66.5,61.0,29.72,South,176,8.0,14.0,83,0.00,,,0.00,weatherlink.com 1.10,2013-04-08 09:06:00,
2013-04-08 05:36:00,66.5,61.0,29.71,South,172,8.0,14.0,83,0.00,,,0.00,weatherlink.com 1.10,2013-04-08 10:36:00,
2013-04-08 05:51:00,66.5,62.0,29.71,SSE,159,3.0,11.0,84,0.00,,,0.00,weatherlink.com 1.10,2013-04-08 10:51:00,
2013-04-08 06:06:00,66.5,62.0,29.71,SSW,194,6.0,12.0,84,0.00,,,0.00,weatherlink.com 1.10,2013-04-08 11:06:00,
2013-04-08 06:36:00,66.5,62.0,29.71,SSE,166,5.0,13.0,85,0.00,,,0.00,weatherlink.com 1.10,2013-04-08 11:36:00,
2013-04-08 06:51:00,66.5,62.0,29.71,SSE,167,5.0,10.0,85,0.00,,,0.00,weatherlink.com 1.10,2013-04-08 11:51:00,
2013-04-08 07:06:00,66.5,62.0,29.72,South,177,6.0,11.0,86,0.00,,,0.00,weatherlink.com 1.10,2013-04-08 12:06:00,
2013-04-08 07:21:00,66.5,62.0,29.72,South,180,4.0,7.0,86,0.00,,,0.00,weatherlink.com 1.10,2013-04-08 12:21:00,
2013-04-08 07:36:00,66.6,63.0,29.72,South,170,3.0,9.0,87,0.00,,,0.00,weatherlink.com 1.10,2013-04-08 12:36:00,
2013-04-08 07:51:00,66.7,62.0,29.72,SSE,156,6.0,10.0,86,0.00,,,0.00,weatherlink.com 1.10,2013-04-08 12:51:00,
2013-04-08 08:06:00,66.9,63.0,29.72,SSE,168,6.0,11.0,87,0.00,,,0.00,weatherlink.com 1.10,2013-04-08 13:06:00,
2013-04-08 08:21:00,67.0,63.0,29.73,SE,141,5.0,12.0,87,0.00,,,0.00,weatherlink.com 1.10,2013-04-08 13:21:00,
2013-04-08 08:36:00,67.1,63.0,29.73,South,185,8.0,10.0,87,0.00,,,0.00,weatherlink.com 1.10,2013-04-08 13:36:00,
2013-04-08 09:21:00,67.6,64.0,29.74,South,172,2.0,9.0,87,0.00,,,0.00,weatherlink.com 1.10,2013-04-08 14:21:00,
2013-04-08 10:06:00,68.9,64.0,29.74,South,182,10.0,11.0,85,0.00,,,0.00,weatherlink.com 1.10,2013-04-08 15:06:00,
2013-04-08 10:36:00,69.4,64.0,29.74,South,174,5.0,10.0,84,0.00,,,0.00,weatherlink.com 1.10,2013-04-08 15:36:00,
2013-04-08 11:06:00,70.3,65.0,29.73,SSE,161,4.0,13.0,84,0.00,,,0.00,weatherlink.com 1.10,2013-04-08 16:06:00,
2013-04-08 11:21:00,70.8,65.0,29.73,South,174,5.0,13.0,83,0.00,,,0.00,weatherlink.com 1.10,2013-04-08 16:21:00,
2013-04-08 11:36:00,70.8,65.0,29.73,SSE,148,4.0,13.0,82,0.00,,,0.00,weatherlink.com 1.10,2013-04-08 16:36:00,
2013-04-08 11:51:00,72.5,66.0,29.73,South,172,8.0,14.0,80,0.00,,,0.00,weatherlink.com 1.10,2013-04-08 16:51:00,
2013-04-08 12:06:00,72.3,65.0,29.73,SSE,162,10.0,15.0,79,0.00,,,0.00,weatherlink.com 1.10,2013-04-08 17:06:00,
2013-04-08 12:21:00,72.5,65.0,29.72,South,183,16.0,16.0,78,0.00,,,0.00,weatherlink.com 1.10,2013-04-08 17:21:00,
2013-04-08 12:36:00,72.5,66.0,29.72,SSE,162,7.0,15.0,79,0.00,,,0.00,weatherlink.com 1.10,2013-04-08 17:36:00,
2013-04-08 12:51:00,72.8,66.0,29.71,SSE,156,7.0,16.0,78,0.00,,,0.00,weatherlink.com 1.10,2013-04-08 17:51:00,
2013-04-08 13:06:00,73.3,66.0,29.71,SSE,154,11.0,16.0,77,0.00,,,0.00,weatherlink.com 1.10,2013-04-08 18:06:00,
2013-04-08 13:21:00,73.0,66.0,29.71,South,171,7.0,16.0,78,0.00,,,0.00,weatherlink.com 1.10,2013-04-08 18:21:00,
2013-04-08 13:36:00,73.8,66.0,29.70,South,176,6.0,14.0,77,0.00,,,0.00,weatherlink.com 1.10,2013-04-08 18:36:00,
2013-04-08 14:06:00,72.5,66.0,29.69,South,178,4.0,16.0,79,0.00,,,0.00,weatherlink.com 1.10,2013-04-08 19:06:00,
2013-04-08 14:21:00,71.8,66.0,29.69,South,181,12.0,15.0,81,0.00,,,0.00,weatherlink.com 1.10,2013-04-08 19:21:00,
2013-04-08 14:36:00,71.3,66.0,29.69,SSE,154,8.0,17.0,83,0.00,,,0.00,weatherlink.com 1.10,2013-04-08 19:36:00,
2013-04-08 14:52:00,70.7,66.0,29.69,SSE,152,4.0,15.0,85,0.00,,,0.00,weatherlink.com 1.10,2013-04-08 19:52:00,
2013-04-08 15:06:00,70.2,66.0,29.68,South,170,9.0,12.0,87,0.00,,,0.00,weatherlink.com 1.10,2013-04-08 20:06:00,
2013-04-08 15:21:00,69.7,67.0,29.68,SSE,167,8.0,12.0,90,0.00,,,0.00,weatherlink.com 1.10,2013-04-08 20:21:00,
2013-04-08 15:36:00,69.3,67.0,29.67,South,185,5.0,14.0,91,0.00,,,0.00,weatherlink.com 1.10,2013-04-08 20:36:00,
2013-04-08 15:52:00,69.4,67.0,29.67,SSE,155,2.0,12.0,92,0.00,,,0.00,weatherlink.com 1.10,2013-04-08 20:52:00,
2013-04-08 16:07:00,69.4,67.0,29.66,SSE,150,4.0,14.0,91,0.00,,,0.00,weatherlink.com 1.10,2013-04-08 21:07:00,
2013-04-08 16:22:00,69.5,67.0,29.66,South,184,3.0,11.0,92,0.00,,,0.00,weatherlink.com 1.10,2013-04-08 21:22:00,
2013-04-08 16:37:00,70.0,67.0,29.66,South,184,6.0,11.0,91,0.00,,,0.00,weatherlink.com 1.10,2013-04-08 21:37:00,
2013-04-08 16:52:00,69.9,67.0,29.65,SSE,155,5.0,12.0,91,0.00,,,0.00,weatherlink.com 1.10,2013-04-08 21:52:00,
2013-04-08 17:07:00,69.8,67.0,29.65,SSE,160,9.0,14.0,91,0.00,,,0.00,weatherlink.com 1.10,2013-04-08 22:07:00,
2013-04-08 17:22:00,70.0,67.0,29.64,SSW,192,7.0,12.0,91,0.00,,,0.00,weatherlink.com 1.10,2013-04-08 22:22:00,
2013-04-08 17:37:00,71.5,68.0,29.64,South,178,10.0,18.0,88,0.00,,,0.00,weatherlink.com 1.10,2013-04-08 22:37:00,
2013-04-08 17:52:00,73.2,68.0,29.63,SE,129,7.0,19.0,83,0.00,,,0.00,weatherlink.com 1.10,2013-04-08 22:52:00,
2013-04-08 18:07:00,73.3,68.0,29.62,SSE,167,11.0,19.0,82,0.00,,,0.00,weatherlink.com 1.10,2013-04-08 23:07:00,
2013-04-08 18:22:00,73.0,67.0,29.64,SE,135,7.0,16.0,82,0.00,,,0.00,weatherlink.com 1.10,2013-04-08 23:22:00,
2013-04-08 18:37:00,72.8,67.0,29.63,SSE,156,4.0,13.0,82,0.00,,,0.00,weatherlink.com 1.10,2013-04-08 23:37:00,
2013-04-08 18:52:00,72.8,67.0,29.64,SSE,155,6.0,13.0,82,0.00,,,0.00,weatherlink.com 1.10,2013-04-08 23:52:00,
2013-04-08 19:07:00,72.9,67.0,29.63,South,170,8.0,11.0,81,0.00,,,0.00,weatherlink.com 1.10,2013-04-09 00:07:00,
2013-04-08 19:22:00,73.0,66.0,29.64,SSE,167,4.0,15.0,79,0.00,,,0.00,weatherlink.com 1.10,2013-04-09 00:22:00,
2013-04-08 19:37:00,73.1,66.0,29.63,SSE,164,3.0,13.0,78,0.00,,,0.00,weatherlink.com 1.10,2013-04-09 00:37:00,
2013-04-08 19:52:00,72.9,66.0,29.63,SW,218,6.0,12.0,79,0.00,,,0.00,weatherlink.com 1.10,2013-04-09 00:52:00,
2013-04-08 20:07:00,72.6,65.0,29.64,SSE,166,7.0,15.0,78,0.00,,,0.00,weatherlink.com 1.10,2013-04-09 01:07:00,
2013-04-08 20:22:00,72.5,65.0,29.64,SE,137,9.0,19.0,78,0.00,,,0.00,weatherlink.com 1.10,2013-04-09 01:22:00,
2013-04-08 20:37:00,72.3,65.0,29.64,South,187,7.0,15.0,78,0.00,,,0.00,weatherlink.com 1.10,2013-04-09 01:37:00,
2013-04-08 21:07:00,71.9,65.0,29.64,SSE,147,7.0,17.0,79,0.00,,,0.00,weatherlink.com 1.10,2013-04-09 02:07:00,
2013-04-08 21:22:00,71.7,65.0,29.65,SE,141,3.0,18.0,78,0.00,,,0.00,weatherlink.com 1.10,2013-04-09 02:22:00,
2013-04-08 21:37:00,71.5,65.0,29.66,SE,134,10.0,15.0,79,0.00,,,0.00,weatherlink.com 1.10,2013-04-09 02:37:00,
2013-04-08 21:52:00,71.2,65.0,29.66,ESE,113,18.0,18.0,80,0.00,,,0.00,weatherlink.com 1.10,2013-04-09 02:52:00,
2013-04-08 22:07:00,70.9,65.0,29.66,SSW,193,8.0,15.0,81,0.00,,,0.00,weatherlink.com 1.10,2013-04-09 03:07:00,
2013-04-08 22:22:00,70.6,65.0,29.66,South,170,11.0,19.0,82,0.00,,,0.00,weatherlink.com 1.10,2013-04-09 03:22:00,
2013-04-08 22:37:00,70.4,65.0,29.66,SSE,152,6.0,24.0,83,0.00,,,0.00,weatherlink.com 1.10,2013-04-09 03:37:00,
2013-04-08 22:52:00,70.2,65.0,29.66,SSE,156,5.0,19.0,84,0.00,,,0.00,weatherlink.com 1.10,2013-04-09 03:52:00,
2013-04-08 23:07:00,70.1,65.0,29.66,South,174,5.0,19.0,84,0.00,,,0.00,weatherlink.com 1.10,2013-04-09 04:07:00,
2013-04-08 23:22:00,70.0,65.0,29.66,SSE,149,7.0,20.0,85,0.00,,,0.00,weatherlink.com 1.10,2013-04-09 04:22:00,
2013-04-08 23:37:00,69.9,65.0,29.66,SSE,166,11.0,21.0,85,0.00,,,0.00,weatherlink.com 1.10,2013-04-09 04:37:00,
2013-04-08 23:52:00,69.9,65.0,29.65,South,184,13.0,19.0,85,0.00,,,0.00,weatherlink.com 1.10,2013-04-09 04:52:00,